createdAt,value
2022-10-14T00:00:41.031Z,24.53
2022-10-14T00:03:44.053Z,27.37
2022-10-14T00:06:47.878Z,27.37
2022-10-14T00:09:50.474Z,27.50
2022-10-14T00:12:52.950Z,29.67
2022-10-14T00:15:55.429Z,28.67
2022-10-14T00:18:58.540Z,31.87
2022-10-14T00:22:02.393Z,36.47
2022-10-14T00:25:05.555Z,29.17
2022-10-14T00:28:08.057Z,24.67
2022-10-14T00:31:10.570Z,29.83
2022-10-14T00:34:15.760Z,32.77
2022-10-14T00:37:20.023Z,33.40
2022-10-14T00:40:22.688Z,28.03
2022-10-14T00:43:27.637Z,25.13
2022-10-14T00:46:32.223Z,27.40
2022-10-14T00:49:38.003Z,29.13
2022-10-14T00:52:42.082Z,28.57
2022-10-14T00:55:44.732Z,28.13
2022-10-14T00:58:47.603Z,29.80
2022-10-14T01:01:50.211Z,27.57
2022-10-14T01:04:52.896Z,32.27
2022-10-14T01:08:03.890Z,31.43
2022-10-14T01:11:11.675Z,33.90
2022-10-14T01:14:24.230Z,30.87
2022-10-14T01:17:36.517Z,38.27
2022-10-14T01:21:08.783Z,34.97
2022-10-14T01:24:41.303Z,29.80
2022-10-14T01:27:56.281Z,35.17
2022-10-14T01:31:03.733Z,33.33
2022-10-14T01:34:10.253Z,36.40
2022-10-14T01:37:17.911Z,39.13
2022-10-14T01:40:27.681Z,38.77
2022-10-14T01:43:32.945Z,37.70
2022-10-14T01:46:39.526Z,33.43
2022-10-14T01:49:46.425Z,31.47
2022-10-14T01:52:53.308Z,35.57
2022-10-14T01:55:57.195Z,35.97
2022-10-14T01:59:01.806Z,34.97
2022-10-14T02:02:05.766Z,33.83
2022-10-14T02:05:15.814Z,36.53
2022-10-14T02:08:27.182Z,36.80
2022-10-14T02:11:35.315Z,37.47
2022-10-14T02:14:44.934Z,35.93
2022-10-14T02:17:56.179Z,40.10
2022-10-14T02:21:06.720Z,34.90
2022-10-14T02:24:14.854Z,33.93
2022-10-14T02:27:21.219Z,38.10
2022-10-14T02:30:23.985Z,37.23
2022-10-14T02:33:33.230Z,40.50
2022-10-14T02:36:36.943Z,40.60
2022-10-14T02:39:47.061Z,38.73
2022-10-14T02:42:49.779Z,45.20
2022-10-14T02:45:58.170Z,41.77
2022-10-14T02:49:02.500Z,37.67
2022-10-14T02:52:05.327Z,38.73
2022-10-14T02:55:08.592Z,39.27
2022-10-14T02:58:11.226Z,40.37
2022-10-14T03:01:13.855Z,39.77
2022-10-14T03:04:17.844Z,41.80
2022-10-14T03:07:20.524Z,40.00
2022-10-14T03:10:23.119Z,44.03
2022-10-14T03:13:25.828Z,39.73
2022-10-14T03:16:28.440Z,46.40
2022-10-14T03:19:32.278Z,43.07
2022-10-14T03:22:34.890Z,42.77
2022-10-14T03:25:38.357Z,38.17
2022-10-14T03:28:40.932Z,48.23
2022-10-14T03:31:43.593Z,56.70
2022-10-14T03:34:47.439Z,38.27
2022-10-14T03:37:49.922Z,52.93
2022-10-14T03:40:52.403Z,50.93
2022-10-14T03:43:54.897Z,50.90
2022-10-14T03:46:57.974Z,56.43
2022-10-14T03:50:02.901Z,49.67
2022-10-14T03:53:05.544Z,55.47
2022-10-14T03:56:08.676Z,52.20
2022-10-14T03:59:11.194Z,53.13
2022-10-14T04:02:13.770Z,53.87
2022-10-14T04:05:17.713Z,50.10
2022-10-14T04:08:20.258Z,52.07
2022-10-14T04:11:22.722Z,50.80
2022-10-14T04:14:26.487Z,51.23
2022-10-14T04:17:28.961Z,57.77
2022-10-14T04:20:32.781Z,54.73
2022-10-14T04:23:36.127Z,42.03
2022-10-14T04:26:38.604Z,46.40
2022-10-14T04:29:41.422Z,47.33
2022-10-14T04:32:43.928Z,46.67
2022-10-14T04:35:47.747Z,45.93
2022-10-14T04:38:50.229Z,49.07
2022-10-14T04:41:52.743Z,47.63
2022-10-14T04:44:55.234Z,48.97
2022-10-14T04:47:57.713Z,41.60
2022-10-14T04:51:01.530Z,46.80
2022-10-14T04:54:04.254Z,48.70
2022-10-14T04:57:06.741Z,53.07
2022-10-14T05:00:10.822Z,52.40
2022-10-14T05:03:13.278Z,48.87
2022-10-14T05:06:17.103Z,43.50
2022-10-14T05:09:19.652Z,43.67
2022-10-14T05:12:22.380Z,48.33
2022-10-14T05:15:25.170Z,46.50
2022-10-14T05:18:27.725Z,55.10
2022-10-14T05:21:31.570Z,49.10
2022-10-14T05:24:34.069Z,50.67
2022-10-14T05:27:36.744Z,48.93
2022-10-14T05:30:39.247Z,47.83
2022-10-14T05:33:41.720Z,50.90
2022-10-14T05:36:45.588Z,47.93
2022-10-14T05:39:48.116Z,47.13
2022-10-14T05:42:50.814Z,44.47
2022-10-14T05:45:53.389Z,46.60
2022-10-14T05:48:57.501Z,51.03
2022-10-14T05:52:01.353Z,48.87
2022-10-14T05:55:04.137Z,43.90
2022-10-14T05:58:06.623Z,49.93
2022-10-14T06:01:11.099Z,51.50
2022-10-14T06:04:18.582Z,41.93
2022-10-14T06:07:22.461Z,39.23
2022-10-14T06:10:24.946Z,42.23
2022-10-14T06:13:27.483Z,42.23
2022-10-14T06:16:29.978Z,46.43
2022-10-14T06:19:32.485Z,45.13
2022-10-14T06:22:36.332Z,43.30
2022-10-14T06:25:38.964Z,43.50
2022-10-14T06:28:41.578Z,44.93
2022-10-14T06:31:44.152Z,42.10
2022-10-14T06:34:46.632Z,49.70
2022-10-14T06:37:50.579Z,50.07
2022-10-14T06:40:53.259Z,43.37
2022-10-14T06:43:55.771Z,43.10
2022-10-14T06:46:58.271Z,49.73
2022-10-14T06:50:00.765Z,48.27
2022-10-14T06:53:04.609Z,52.40
2022-10-14T06:56:09.294Z,45.13
2022-10-14T06:59:11.771Z,45.30
2022-10-14T07:02:14.275Z,50.53
2022-10-14T07:05:17.219Z,50.03
2022-10-14T07:08:21.013Z,51.70
2022-10-14T07:11:23.547Z,56.23
2022-10-14T07:14:27.965Z,45.93
2022-10-14T07:17:30.471Z,49.63
2022-10-14T07:20:33.944Z,51.17
2022-10-14T07:23:37.752Z,51.17
2022-10-14T07:26:40.566Z,53.50
2022-10-14T07:29:43.198Z,47.47
2022-10-14T07:32:45.793Z,51.70
2022-10-14T07:35:48.295Z,50.67
2022-10-14T07:38:52.150Z,58.93
2022-10-14T07:41:54.657Z,53.53
2022-10-14T07:44:58.034Z,53.63
2022-10-14T07:48:00.536Z,56.33
2022-10-14T07:51:03.125Z,46.17
2022-10-14T07:54:09.650Z,49.30
2022-10-14T07:57:12.414Z,56.13
2022-10-14T08:00:15.184Z,55.87
2022-10-14T08:03:18.366Z,49.30
2022-10-14T08:06:21.066Z,56.40
2022-10-14T08:09:24.913Z,49.27
2022-10-14T08:12:27.486Z,50.27
2022-10-14T08:15:33.547Z,50.97
2022-10-14T08:18:36.016Z,55.23
2022-10-14T08:21:38.541Z,54.97
2022-10-14T08:24:42.422Z,53.27
2022-10-14T08:27:44.871Z,50.77
2022-10-14T08:30:48.134Z,56.50
2022-10-14T08:33:50.605Z,54.17
2022-10-14T08:36:53.155Z,54.53
2022-10-14T08:39:56.952Z,53.63
2022-10-14T08:43:05.306Z,57.43
2022-10-14T08:46:15.207Z,58.73
2022-10-14T08:49:24.900Z,51.07
2022-10-14T08:52:34.987Z,50.20
2022-10-14T08:55:44.474Z,51.03
2022-10-14T08:58:49.863Z,46.57
2022-10-14T09:01:54.701Z,44.97
2022-10-14T09:04:58.103Z,42.13
2022-10-14T09:08:02.678Z,44.53
2022-10-14T09:11:07.641Z,42.27
2022-10-14T09:14:17.978Z,46.10
2022-10-14T09:17:26.481Z,39.37
2022-10-14T09:20:29.002Z,42.07
2022-10-14T09:23:31.506Z,48.10
2022-10-14T09:26:41.081Z,39.70
2022-10-14T09:29:47.245Z,42.83
2022-10-14T09:32:52.453Z,38.03
2022-10-14T09:35:55.132Z,37.33
2022-10-14T09:39:02.396Z,33.07
2022-10-14T09:42:18.429Z,36.33
2022-10-14T09:45:23.578Z,31.70
2022-10-14T09:48:33.426Z,32.10
2022-10-14T09:51:36.102Z,31.10
2022-10-14T09:54:38.800Z,36.57
2022-10-14T09:57:42.720Z,32.87
2022-10-14T10:00:46.767Z,31.80
2022-10-14T10:03:51.037Z,33.13
2022-10-14T10:06:55.338Z,28.97
2022-10-14T10:09:59.554Z,31.07
2022-10-14T10:13:03.893Z,31.53
2022-10-14T10:16:08.834Z,28.60
2022-10-14T10:19:27.367Z,30.30
2022-10-14T10:22:33.982Z,26.57
2022-10-14T10:25:36.480Z,29.00
2022-10-14T10:28:46.528Z,29.33
2022-10-14T10:32:12.030Z,21.77
2022-10-14T10:35:23.744Z,23.77
2022-10-14T10:38:31.679Z,20.13
2022-10-14T10:41:50.648Z,26.37
2022-10-14T10:45:04.580Z,20.77
2022-10-14T10:48:16.283Z,28.03
2022-10-14T10:51:27.524Z,26.50
2022-10-14T10:54:41.267Z,26.83
2022-10-14T10:57:56.358Z,25.00
2022-10-14T11:01:06.033Z,22.27
2022-10-14T11:04:22.336Z,22.03
2022-10-14T11:07:50.692Z,22.93
2022-10-14T11:11:30.978Z,23.93
2022-10-14T11:14:49.677Z,24.77
2022-10-14T11:17:59.541Z,22.80
2022-10-14T11:21:10.849Z,24.97
2022-10-14T11:24:24.944Z,28.53
2022-10-14T11:27:37.303Z,27.90
2022-10-14T11:30:49.306Z,25.57
2022-10-14T11:34:09.514Z,23.00
2022-10-14T11:37:24.632Z,25.40
2022-10-14T11:40:29.212Z,24.20
2022-10-14T11:43:40.445Z,27.80
2022-10-14T11:46:47.909Z,22.20
2022-10-14T11:49:57.835Z,20.97
2022-10-14T11:53:05.229Z,23.77
2022-10-14T11:56:18.337Z,25.80
2022-10-14T11:59:40.068Z,24.93
2022-10-14T12:02:50.516Z,23.83
2022-10-14T12:06:01.941Z,21.90
2022-10-14T12:09:13.568Z,20.30
2022-10-14T12:12:20.825Z,19.83
2022-10-14T12:15:26.836Z,18.83
2022-10-14T12:18:30.774Z,18.33
2022-10-14T12:21:49.694Z,25.87
2022-10-14T12:24:55.120Z,16.80
2022-10-14T12:27:57.760Z,16.53
2022-10-14T12:31:22.351Z,20.73
2022-10-14T12:34:34.751Z,15.93
2022-10-14T12:37:51.975Z,14.13
2022-10-14T12:40:54.881Z,16.07
2022-10-14T12:44:02.302Z,14.37
2022-10-14T12:47:05.878Z,13.13
2022-10-14T12:50:29.169Z,12.25
2022-10-14T12:53:35.186Z,11.88
2022-10-14T12:56:41.278Z,21.55
2022-10-14T12:59:50.929Z,12.70
2022-10-14T13:02:56.474Z,12.55
2022-10-14T13:06:29.605Z,12.55
2022-10-14T13:09:36.378Z,11.77
2022-10-14T13:12:43.830Z,13.77
2022-10-14T13:15:51.097Z,10.93
2022-10-14T13:18:54.486Z,11.93
2022-10-14T13:21:56.978Z,10.25
2022-10-14T13:25:07.945Z,12.75
2022-10-14T13:28:25.189Z,11.98
2022-10-14T13:31:35.790Z,11.20
2022-10-14T13:34:50.642Z,12.95
2022-10-14T13:37:59.789Z,13.57
2022-10-14T13:41:04.579Z,16.63
2022-10-14T13:44:07.144Z,12.13
2022-10-14T13:47:14.133Z,11.60
2022-10-14T13:50:20.044Z,16.87
2022-10-14T13:53:23.770Z,14.00
2022-10-14T13:56:29.361Z,13.30
2022-10-14T13:59:44.400Z,11.80
2022-10-14T14:02:55.168Z,12.77
2022-10-14T14:06:00.846Z,21.43
2022-10-14T14:09:06.129Z,15.97
2022-10-14T14:12:14.227Z,15.83
2022-10-14T14:15:22.660Z,12.40
2022-10-14T14:18:43.445Z,12.30
2022-10-14T14:22:08.631Z,13.07
2022-10-14T14:25:33.384Z,12.73
2022-10-14T14:28:37.536Z,13.70
2022-10-14T14:35:05.988Z,12.40
2022-10-14T14:38:26.851Z,13.13
2022-10-14T14:41:31.256Z,15.43
2022-10-14T14:44:35.605Z,12.87
2022-10-14T14:47:38.201Z,12.80
2022-10-14T14:50:43.920Z,11.80
2022-10-14T14:53:51.104Z,15.67
2022-10-14T14:56:57.497Z,11.37
2022-10-14T15:00:03.633Z,17.97
2022-10-14T15:03:06.249Z,13.60
2022-10-14T15:06:16.274Z,12.63
2022-10-14T15:09:23.921Z,16.50
2022-10-14T15:12:30.616Z,16.33
2022-10-14T15:15:35.168Z,18.23
2022-10-14T15:18:40.900Z,13.93
2022-10-14T15:21:47.272Z,20.40
2022-10-14T15:25:05.093Z,16.80
2022-10-14T15:28:29.840Z,17.90
2022-10-14T15:31:34.129Z,14.93
2022-10-14T15:34:36.652Z,13.50
2022-10-14T15:37:39.161Z,13.83
2022-10-14T15:40:41.858Z,17.40
2022-10-14T15:43:44.350Z,19.20
2022-10-14T15:47:05.590Z,25.30
2022-10-14T15:50:14.038Z,13.03
2022-10-14T15:53:19.141Z,12.27
2022-10-14T15:56:21.624Z,31.70
2022-10-14T15:59:24.613Z,29.33
2022-10-14T16:02:33.707Z,31.47
2022-10-14T16:05:36.656Z,28.13
2022-10-14T16:08:39.393Z,18.93
2022-10-14T16:11:42.068Z,19.43
2022-10-14T16:14:44.912Z,16.17
2022-10-14T16:17:52.097Z,19.57
2022-10-14T16:20:55.669Z,19.20
2022-10-14T16:23:58.716Z,16.77
2022-10-14T16:27:01.346Z,20.63
2022-10-14T16:30:11.264Z,21.23
2022-10-14T16:33:15.457Z,16.27
2022-10-14T16:36:18.525Z,13.33
2022-10-14T16:39:21.316Z,18.00
2022-10-14T16:42:23.820Z,16.87
2022-10-14T16:45:26.290Z,18.17
2022-10-14T16:48:30.560Z,21.70
2022-10-14T16:51:33.040Z,30.33
2022-10-14T16:54:35.567Z,25.13
2022-10-14T16:57:38.042Z,21.43
2022-10-14T17:00:40.574Z,27.40
2022-10-14T17:03:44.398Z,36.83
2022-10-14T17:06:47.472Z,23.90
2022-10-14T17:09:49.938Z,24.27
2022-10-14T17:12:53.881Z,21.40
2022-10-14T17:16:00.323Z,27.77
2022-10-14T17:19:04.163Z,52.67
2022-10-14T17:22:06.650Z,21.77
2022-10-14T17:25:10.056Z,17.50
2022-10-14T17:28:13.084Z,33.40
2022-10-14T17:31:17.610Z,22.30
2022-10-14T17:34:22.926Z,17.20
2022-10-14T17:37:25.452Z,21.80
2022-10-14T17:40:27.937Z,13.90
2022-10-14T17:43:30.548Z,23.97
2022-10-14T17:46:33.895Z,24.13
2022-10-14T17:49:37.714Z,12.13
2022-10-14T17:52:40.167Z,13.93
2022-10-14T17:55:42.651Z,12.53
2022-10-14T17:58:45.140Z,34.97
2022-10-14T18:02:04.030Z,15.40
2022-10-14T18:05:09.047Z,16.70
2022-10-14T18:08:12.072Z,16.97
2022-10-14T18:11:14.563Z,13.40
2022-10-14T18:14:17.164Z,15.30
2022-10-14T18:17:19.749Z,12.67
2022-10-14T18:20:23.679Z,14.77
2022-10-14T18:23:26.310Z,10.57
2022-10-14T18:26:29.224Z,10.10
2022-10-14T18:29:31.852Z,9.13
2022-10-14T18:32:34.478Z,10.37
2022-10-14T18:35:38.296Z,15.33
2022-10-14T18:38:41.017Z,13.03
2022-10-14T18:41:43.935Z,11.33
2022-10-14T18:44:46.429Z,10.50
2022-10-14T18:47:48.909Z,9.57
2022-10-14T18:50:59.184Z,18.40
2022-10-14T18:54:05.149Z,23.87
2022-10-14T18:57:09.359Z,11.07
2022-10-14T19:00:14.329Z,13.00
2022-10-14T19:03:18.583Z,11.30
2022-10-14T19:06:23.666Z,16.67
2022-10-14T19:09:29.555Z,12.03
2022-10-14T19:12:44.452Z,23.67
2022-10-14T19:15:53.785Z,17.47
2022-10-14T19:18:57.917Z,18.60
2022-10-14T19:22:01.741Z,15.00
2022-10-14T19:25:04.761Z,13.87
2022-10-14T19:28:07.473Z,8.43
2022-10-14T19:31:12.245Z,11.50
2022-10-14T19:34:16.633Z,10.87
2022-10-14T19:37:20.723Z,11.07
2022-10-14T19:40:23.812Z,9.93
2022-10-14T19:43:26.569Z,10.83
2022-10-14T19:46:30.017Z,9.43
2022-10-14T19:49:32.507Z,10.37
2022-10-14T19:52:36.408Z,11.03
2022-10-14T19:55:39.034Z,21.43
2022-10-14T19:58:44.770Z,9.57
2022-10-14T20:01:47.926Z,42.40
2022-10-14T20:04:50.498Z,12.07
2022-10-14T20:07:54.524Z,18.80
2022-10-14T20:10:57.318Z,15.53
2022-10-14T20:14:00.007Z,25.97
2022-10-14T20:17:03.684Z,17.80
2022-10-14T20:20:07.519Z,10.97
2022-10-14T20:23:11.467Z,14.80
2022-10-14T20:26:17.425Z,12.57
2022-10-14T20:29:19.995Z,10.03
2022-10-14T20:32:22.497Z,7.57
2022-10-14T20:35:25.190Z,11.73
2022-10-14T20:38:29.552Z,12.10
2022-10-14T20:41:32.066Z,15.40
2022-10-14T20:44:34.657Z,10.70
2022-10-14T20:47:37.154Z,14.77
2022-10-14T20:50:39.633Z,7.57
2022-10-14T20:53:43.521Z,7.03
2022-10-14T20:56:46.043Z,8.00
2022-10-14T20:59:48.551Z,8.07
2022-10-14T21:02:51.081Z,9.60
2022-10-14T21:05:53.552Z,16.93
2022-10-14T21:08:58.796Z,12.33
2022-10-14T21:12:01.279Z,13.07
2022-10-14T21:15:04.145Z,15.80
2022-10-14T21:18:07.066Z,22.90
2022-10-14T21:21:11.635Z,14.23
2022-10-14T21:24:19.984Z,9.20
2022-10-14T21:27:22.787Z,12.50
2022-10-14T21:30:25.443Z,9.57
2022-10-14T21:33:27.910Z,14.17
2022-10-14T21:36:30.464Z,15.13
2022-10-14T21:39:34.277Z,15.33
2022-10-14T21:42:36.753Z,13.10
2022-10-14T21:45:39.246Z,18.50
2022-10-14T21:48:43.333Z,15.33
2022-10-14T21:51:45.838Z,19.93
2022-10-14T21:54:49.694Z,14.27
2022-10-14T21:57:52.392Z,6.80
2022-10-14T22:01:02.230Z,7.70
2022-10-14T22:04:06.761Z,7.27
2022-10-14T22:07:10.536Z,6.47
2022-10-14T22:10:28.649Z,8.23
2022-10-14T22:13:31.904Z,7.67
2022-10-14T22:16:34.542Z,8.70
2022-10-14T22:19:37.039Z,5.23
2022-10-14T22:22:39.505Z,8.20
2022-10-14T22:25:43.359Z,7.27
2022-10-14T22:28:46.259Z,12.07
2022-10-14T22:31:48.784Z,5.83
2022-10-14T22:34:51.261Z,7.00
2022-10-14T22:37:53.973Z,10.03
2022-10-14T22:41:01.319Z,9.63
2022-10-14T22:44:05.302Z,7.63
2022-10-14T22:47:07.794Z,6.97
2022-10-14T22:50:10.866Z,13.20
2022-10-14T22:53:13.554Z,7.27
2022-10-14T22:56:22.137Z,9.10
2022-10-14T22:59:24.928Z,9.33
2022-10-14T23:02:27.408Z,12.03
2022-10-14T23:05:30.799Z,15.00
2022-10-14T23:08:34.688Z,9.60
2022-10-14T23:11:38.514Z,7.63
2022-10-14T23:14:40.986Z,8.60
2022-10-14T23:17:43.483Z,9.13
2022-10-14T23:20:45.952Z,8.03
2022-10-14T23:23:49.703Z,8.70
2022-10-14T23:26:53.620Z,8.03
2022-10-14T23:29:56.174Z,7.77
2022-10-14T23:32:58.642Z,9.17
2022-10-14T23:36:03.713Z,9.33
2022-10-14T23:39:06.505Z,7.83
2022-10-14T23:42:10.307Z,8.40
2022-10-14T23:45:12.867Z,8.43
2022-10-14T23:48:15.348Z,13.67
2022-10-14T23:51:18.222Z,11.43
2022-10-14T23:54:20.729Z,9.67
2022-10-14T23:57:25.022Z,11.30
